createdAt,value
2017-10-11T00:02:05.687Z,6.70
2017-10-11T00:04:35.895Z,10.20
2017-10-11T00:07:07.018Z,12.88
2017-10-11T00:09:37.892Z,8.55
2017-10-11T00:12:08.083Z,11.20
2017-10-11T00:14:38.147Z,6.22
2017-10-11T00:17:08.465Z,7.45
2017-10-11T00:19:38.305Z,9.70
2017-10-11T00:22:09.064Z,10.85
2017-10-11T00:24:38.873Z,8.50
2017-10-11T00:27:08.716Z,10.52
2017-10-11T00:29:38.762Z,12.52
2017-10-11T00:32:09.937Z,13.95
2017-10-11T00:34:40.518Z,13.30
2017-10-11T00:37:12.344Z,11.30
2017-10-11T00:39:42.987Z,8.88
2017-10-11T00:42:13.630Z,14.43
2017-10-11T00:44:45.061Z,9.60
2017-10-11T00:47:15.766Z,6.80
2017-10-11T00:49:46.421Z,9.20
2017-10-11T00:52:17.094Z,11.65
2017-10-11T00:54:48.474Z,12.47
2017-10-11T00:57:18.738Z,12.93
2017-10-11T00:59:48.926Z,11.30
2017-10-11T01:02:19.396Z,10.30
2017-10-11T01:04:50.935Z,9.48
2017-10-11T01:07:21.233Z,13.93
2017-10-11T01:09:52.222Z,8.70
2017-10-11T01:12:22.388Z,8.55
2017-10-11T01:14:52.420Z,9.38
2017-10-11T01:17:23.437Z,6.60
2017-10-11T01:19:53.565Z,12.57
2017-10-11T01:22:23.832Z,11.57
2017-10-11T01:24:55.804Z,8.15
2017-10-11T01:27:26.123Z,18.60
2017-10-11T01:29:56.615Z,12.63
2017-10-11T01:32:26.655Z,10.32
2017-10-11T01:34:57.316Z,13.07
2017-10-11T01:37:27.254Z,8.70
2017-10-11T01:39:57.612Z,11.00
2017-10-11T01:42:27.956Z,7.73
2017-10-11T01:44:57.990Z,8.60
2017-10-11T01:47:29.115Z,7.35
2017-10-11T01:49:59.097Z,8.02
2017-10-11T01:52:28.884Z,9.90
2017-10-11T01:55:02.925Z,6.03
2017-10-11T01:57:33.357Z,5.20
2017-10-11T02:00:03.365Z,14.90
2017-10-11T02:02:33.243Z,12.77
2017-10-11T02:05:03.403Z,7.95
2017-10-11T02:07:33.310Z,7.40
2017-10-11T02:10:03.100Z,6.73
2017-10-11T02:12:33.561Z,6.05
2017-10-11T02:15:05.447Z,5.75
2017-10-11T02:17:36.904Z,7.50
2017-10-11T02:20:06.829Z,12.57
2017-10-11T02:22:36.845Z,8.73
2017-10-11T02:25:07.153Z,8.75
2017-10-11T02:27:38.177Z,8.82
2017-10-11T02:30:09.337Z,8.53
2017-10-11T02:32:39.998Z,8.33
2017-10-11T02:35:10.282Z,5.85
2017-10-11T02:37:41.218Z,8.38
2017-10-11T02:40:11.798Z,10.68
2017-10-11T02:42:41.878Z,9.10
2017-10-11T02:45:12.026Z,8.25
2017-10-11T02:47:41.805Z,9.48
2017-10-11T02:50:12.198Z,7.40
2017-10-11T02:52:42.894Z,6.60
2017-10-11T02:55:12.617Z,5.85
2017-10-11T02:57:42.390Z,5.65
2017-10-11T03:00:13.678Z,6.47
2017-10-11T03:02:43.877Z,6.97
2017-10-11T03:05:13.865Z,10.37
2017-10-11T03:07:43.825Z,5.70
2017-10-11T03:10:14.269Z,7.93
2017-10-11T03:12:44.647Z,11.90
2017-10-11T03:17:42.287Z,7.32
2017-10-11T03:20:12.938Z,5.62
2017-10-11T03:22:42.861Z,8.00
2017-10-11T03:25:12.917Z,9.00
2017-10-11T03:27:42.943Z,6.80
2017-10-11T03:30:12.827Z,7.90
2017-10-11T03:32:42.839Z,9.40
2017-10-11T03:35:13.036Z,7.27
2017-10-11T03:37:44.888Z,6.50
2017-10-11T03:40:15.619Z,8.07
2017-10-11T03:42:45.658Z,8.60
2017-10-11T03:45:16.899Z,9.70
2017-10-11T03:47:46.887Z,12.57
2017-10-11T03:50:17.770Z,6.95
2017-10-11T03:52:48.524Z,10.00
2017-10-11T03:55:18.470Z,6.95
2017-10-11T03:57:49.466Z,7.83
2017-10-11T04:00:19.557Z,10.80
2017-10-11T04:02:50.528Z,9.32
2017-10-11T04:05:21.075Z,8.93
2017-10-11T04:07:51.995Z,6.87
2017-10-11T04:10:22.743Z,5.95
2017-10-11T04:12:53.760Z,9.00
2017-10-11T04:15:23.703Z,20.75
2017-10-11T04:17:54.969Z,10.48
2017-10-11T04:20:25.078Z,9.40
2017-10-11T04:22:55.905Z,9.60
2017-10-11T04:25:26.219Z,7.55
2017-10-11T04:27:57.069Z,14.05
2017-10-11T04:30:27.134Z,8.33
2017-10-11T04:32:57.596Z,8.17
2017-10-11T04:35:27.560Z,11.45
2017-10-11T04:37:57.487Z,7.37
2017-10-11T04:40:27.547Z,14.35
2017-10-11T04:42:58.393Z,10.10
2017-10-11T04:45:28.480Z,6.40
2017-10-11T04:47:58.653Z,11.20
2017-10-11T04:50:28.589Z,9.93
2017-10-11T04:52:58.558Z,6.30
2017-10-11T04:55:28.543Z,11.57
2017-10-11T04:57:58.448Z,6.20
2017-10-11T05:00:28.702Z,8.10
2017-10-11T05:02:59.378Z,7.15
2017-10-11T05:05:32.455Z,8.13
2017-10-11T05:08:05.530Z,10.07
2017-10-11T05:10:36.421Z,8.63
2017-10-11T05:13:08.312Z,7.83
2017-10-11T05:15:40.972Z,11.25
2017-10-11T05:18:11.838Z,10.93
2017-10-11T05:20:43.378Z,8.02
2017-10-11T05:23:14.296Z,7.95
2017-10-11T05:25:45.943Z,11.12
2017-10-11T05:28:17.955Z,8.75
2017-10-11T05:30:48.502Z,15.68
2017-10-11T05:33:18.919Z,8.40
2017-10-11T05:35:49.105Z,21.95
2017-10-11T05:38:20.471Z,23.95
2017-10-11T05:40:52.207Z,9.77
2017-10-11T05:43:23.492Z,7.57
2017-10-11T05:45:54.220Z,10.07
2017-10-11T05:48:24.224Z,7.30
2017-10-11T05:50:54.630Z,8.10
2017-10-11T05:53:25.217Z,10.07
2017-10-11T05:55:56.075Z,9.05
2017-10-11T05:58:28.244Z,12.55
2017-10-11T06:00:58.795Z,39.22
2017-10-11T06:03:28.847Z,12.80
2017-10-11T06:06:03.430Z,9.90
2017-10-11T06:08:33.791Z,8.43
2017-10-11T06:11:04.095Z,7.78
2017-10-11T06:13:34.042Z,8.70
2017-10-11T06:16:04.226Z,7.15
2017-10-11T06:18:34.807Z,11.70
2017-10-11T06:21:05.614Z,13.50
2017-10-11T06:23:36.652Z,8.60
2017-10-11T06:26:06.482Z,9.10
2017-10-11T06:28:37.484Z,15.75
2017-10-11T06:31:07.716Z,11.63
2017-10-11T06:33:37.614Z,11.65
2017-10-11T06:36:07.749Z,19.27
2017-10-11T06:38:37.649Z,14.00
2017-10-11T06:41:07.988Z,9.77
2017-10-11T06:43:37.995Z,14.80
2017-10-11T06:46:08.112Z,14.20
2017-10-11T06:48:38.349Z,12.80
2017-10-11T06:51:09.094Z,15.60
2017-10-11T06:53:39.694Z,14.85
2017-10-11T06:56:10.011Z,11.43
2017-10-11T06:58:40.271Z,12.85
2017-10-11T07:01:10.349Z,12.48
2017-10-11T07:03:40.189Z,16.05
2017-10-11T07:06:10.131Z,19.70
2017-10-11T07:08:41.259Z,24.42
2017-10-11T07:11:12.215Z,20.95
2017-10-11T07:13:44.380Z,13.23
2017-10-11T07:16:14.999Z,21.60
2017-10-11T07:18:45.390Z,19.10
2017-10-11T07:21:15.983Z,10.20
2017-10-11T07:23:46.327Z,15.80
2017-10-11T07:26:16.412Z,7.87
2017-10-11T07:28:46.989Z,18.00
2017-10-11T07:31:17.677Z,14.60
2017-10-11T07:33:48.308Z,8.02
2017-10-11T07:36:19.462Z,11.67
2017-10-11T07:38:49.708Z,9.52
2017-10-11T07:41:20.099Z,14.10
2017-10-11T07:43:50.743Z,9.75
2017-10-11T07:46:21.095Z,5.80
2017-10-11T07:48:52.933Z,10.20
2017-10-11T07:51:23.351Z,9.27
2017-10-11T07:53:53.990Z,13.55
2017-10-11T07:56:25.583Z,10.30
2017-10-11T07:58:56.024Z,11.50
2017-10-11T08:01:26.975Z,9.45
2017-10-11T08:03:57.984Z,11.27
2017-10-11T08:07:30.479Z,9.00
2017-10-11T08:10:00.351Z,17.80
2017-10-11T08:12:30.933Z,13.63
2017-10-11T08:15:01.599Z,8.15
2017-10-11T08:17:31.861Z,10.30
2017-10-11T08:20:01.730Z,8.43
2017-10-11T08:22:31.500Z,8.23
2017-10-11T08:25:02.226Z,13.07
2017-10-11T08:27:32.101Z,11.52
2017-10-11T08:30:03.247Z,8.57
2017-10-11T08:32:33.253Z,10.37
2017-10-11T08:35:04.235Z,8.23
2017-10-11T08:37:34.351Z,10.27
2017-10-11T08:40:04.235Z,8.23
2017-10-11T08:42:34.083Z,4.03
2017-10-11T08:45:04.697Z,9.13
2017-10-11T08:47:34.927Z,3.58
2017-10-11T08:50:04.895Z,7.85
2017-10-11T08:52:35.388Z,8.57
2017-10-11T08:55:05.455Z,7.53
2017-10-11T08:57:35.491Z,7.30
2017-10-11T09:00:05.632Z,4.75
2017-10-11T09:02:37.233Z,3.08
2017-10-11T09:05:07.221Z,2.47
2017-10-11T09:07:37.199Z,4.40
2017-10-11T09:10:07.754Z,3.50
2017-10-11T09:12:39.310Z,5.17
2017-10-11T09:15:09.262Z,2.83
2017-10-11T09:17:39.508Z,11.57
2017-10-11T09:20:09.495Z,15.77
2017-10-11T09:22:39.564Z,24.27
2017-10-11T09:25:11.128Z,15.10
2017-10-11T09:27:41.760Z,24.65
2017-10-11T09:30:12.450Z,12.30
2017-10-11T09:32:43.020Z,9.80
2017-10-11T09:35:13.539Z,10.37
2017-10-11T09:37:45.211Z,15.00
2017-10-11T09:40:15.290Z,10.80
2017-10-11T09:42:45.675Z,14.10
2017-10-11T09:45:15.999Z,12.90
2017-10-11T09:47:45.944Z,6.78
2017-10-11T09:50:17.076Z,10.53
2017-10-11T09:52:48.504Z,12.02
2017-10-11T09:55:20.948Z,17.52
2017-10-11T09:57:51.808Z,8.43
2017-10-11T10:00:22.333Z,10.02
2017-10-11T10:02:52.261Z,50.50
2017-10-11T10:05:22.018Z,18.30
2017-10-11T10:07:52.510Z,17.52
2017-10-11T10:10:22.550Z,20.40
2017-10-11T10:12:52.679Z,6.80
2017-10-11T10:15:22.619Z,35.43
2017-10-11T10:17:52.750Z,12.40
2017-10-11T10:20:23.033Z,10.27
2017-10-11T10:22:53.849Z,14.20
2017-10-11T10:25:24.067Z,20.50
2017-10-11T10:27:54.267Z,127.57
2017-10-11T10:30:24.152Z,17.70
2017-10-11T10:32:54.126Z,8.98
2017-10-11T10:35:23.974Z,13.25
2017-10-11T10:37:54.066Z,13.57
2017-10-11T10:40:24.705Z,10.75
2017-10-11T10:42:55.338Z,19.87
2017-10-11T10:45:26.169Z,7.30
2017-10-11T10:47:57.045Z,11.12
2017-10-11T10:50:26.920Z,8.30
2017-10-11T10:52:57.566Z,10.15
2017-10-11T10:55:28.494Z,7.18
2017-10-11T10:57:59.416Z,5.27
2017-10-11T11:00:30.184Z,7.80
2017-10-11T11:03:00.183Z,5.97
2017-10-11T11:05:30.075Z,15.45
2017-10-11T11:08:00.733Z,20.43
2017-10-11T11:10:30.677Z,7.30
2017-10-11T11:13:01.456Z,8.55
2017-10-11T11:15:31.292Z,7.05
2017-10-11T11:18:01.239Z,5.53
2017-10-11T11:20:32.663Z,5.80
2017-10-11T11:23:02.465Z,6.00
2017-10-11T11:25:32.572Z,9.73
2017-10-11T11:28:03.147Z,7.18
2017-10-11T11:30:33.212Z,19.75
2017-10-11T11:33:03.988Z,6.53
2017-10-11T11:35:33.982Z,13.62
2017-10-11T11:38:03.887Z,11.83
2017-10-11T11:40:33.793Z,5.07
2017-10-11T11:43:03.814Z,8.40
2017-10-11T11:45:34.799Z,4.97
2017-10-11T11:48:04.699Z,4.28
2017-10-11T11:51:25.041Z,10.88
2017-10-11T11:53:55.054Z,6.75
2017-10-11T11:56:25.926Z,11.40
2017-10-11T11:58:55.382Z,6.72
2017-10-11T12:01:25.062Z,4.53
2017-10-11T12:03:54.447Z,4.13
2017-10-11T12:06:23.761Z,26.33
2017-10-11T12:08:53.290Z,17.10
2017-10-11T12:11:22.706Z,6.15
2017-10-11T12:13:52.083Z,10.30
2017-10-11T12:16:21.507Z,6.80
2017-10-11T12:18:50.844Z,4.12
2017-10-11T12:21:20.650Z,7.37
2017-10-11T12:23:51.074Z,4.12
2017-10-11T12:26:20.641Z,6.90
2017-10-11T12:28:50.205Z,4.68
2017-10-11T12:31:20.292Z,4.20
2017-10-11T12:33:50.420Z,5.15
2017-10-11T12:36:20.635Z,8.90
2017-10-11T12:38:51.938Z,21.60
2017-10-11T12:41:21.354Z,42.62
2017-10-11T12:43:50.952Z,74.40
2017-10-11T12:46:21.378Z,19.45
2017-10-11T12:48:50.891Z,34.15
2017-10-11T12:51:20.232Z,18.75
2017-10-11T12:53:49.646Z,17.00
2017-10-11T12:56:19.497Z,12.82
2017-10-11T12:58:48.916Z,9.70
2017-10-11T13:01:18.165Z,30.20
2017-10-11T13:03:47.887Z,37.40
2017-10-11T13:06:17.658Z,11.35
2017-10-11T13:08:47.748Z,9.75
2017-10-11T13:11:17.118Z,56.03
2017-10-11T13:13:46.480Z,28.50
2017-10-11T13:16:16.044Z,27.90
2017-10-11T13:18:45.408Z,28.10
2017-10-11T13:21:15.120Z,40.33
2017-10-11T13:23:44.764Z,23.42
2017-10-11T13:26:14.398Z,19.63
2017-10-11T13:28:44.818Z,15.80
2017-10-11T13:31:15.370Z,15.13
2017-10-11T13:33:44.916Z,11.07
2017-10-11T13:36:14.285Z,13.70
2017-10-11T13:38:43.681Z,8.45
2017-10-11T13:41:13.087Z,5.53
2017-10-11T13:43:42.775Z,5.60
2017-10-11T13:46:13.044Z,8.38
2017-10-11T13:48:42.685Z,7.55
2017-10-11T13:51:27.245Z,4.97
2017-10-11T13:53:58.462Z,4.83
2017-10-11T13:56:28.922Z,5.70
2017-10-11T13:58:59.552Z,4.73
2017-10-11T14:01:31.733Z,4.12
2017-10-11T14:04:03.444Z,4.40
2017-10-11T14:06:34.025Z,4.20
2017-10-11T14:09:05.160Z,4.68
2017-10-11T14:11:34.893Z,8.23
2017-10-11T14:14:05.218Z,5.25
2017-10-11T14:16:35.370Z,11.55
2017-10-11T14:19:06.832Z,4.35
2017-10-11T14:21:37.498Z,5.62
2017-10-11T14:24:07.729Z,7.50
2017-10-11T14:26:37.900Z,5.53
2017-10-11T14:29:08.347Z,14.80
2017-10-11T14:31:40.515Z,5.03
2017-10-11T14:34:10.992Z,43.33
2017-10-11T14:36:40.701Z,24.50
2017-10-11T14:39:10.587Z,87.10
2017-10-11T14:41:40.137Z,33.72
2017-10-11T14:44:09.914Z,24.03
2017-10-11T14:46:39.505Z,16.95
2017-10-11T14:49:09.821Z,18.20
2017-10-11T14:51:41.045Z,12.15
2017-10-11T14:54:11.838Z,17.05
2017-10-11T14:56:42.265Z,7.65
2017-10-11T14:59:12.357Z,17.17
2017-10-11T15:01:42.613Z,13.23
2017-10-11T15:04:13.212Z,4.60
2017-10-11T15:06:42.715Z,11.43
2017-10-11T15:09:14.772Z,4.78
2017-10-11T15:11:49.888Z,4.10
2017-10-11T15:14:21.208Z,4.67
2017-10-11T15:16:52.525Z,4.68
2017-10-11T15:19:24.539Z,5.32
2017-10-11T15:21:59.498Z,4.43
2017-10-11T15:24:30.532Z,6.60
2017-10-11T15:27:00.080Z,3.80
2017-10-11T15:29:32.307Z,4.28
2017-10-11T15:32:03.876Z,10.00
2017-10-11T15:34:34.098Z,3.80
2017-10-11T15:37:03.860Z,13.85
2017-10-11T15:39:33.136Z,19.33
2017-10-11T15:42:03.604Z,51.05
2017-10-11T15:44:33.848Z,95.80
2017-10-11T15:47:03.492Z,60.08
2017-10-11T15:49:34.088Z,33.20
2017-10-11T15:52:04.816Z,27.42
2017-10-11T15:54:34.484Z,21.87
2017-10-11T15:57:03.988Z,13.43
2017-10-11T15:59:34.209Z,11.10
2017-10-11T16:02:04.171Z,10.43
2017-10-11T16:04:33.645Z,16.92
2017-10-11T16:07:03.908Z,6.40
2017-10-11T16:09:33.467Z,8.02
2017-10-11T16:12:02.900Z,5.60
2017-10-11T16:14:32.435Z,6.22
2017-10-11T16:17:02.342Z,5.37
2017-10-11T16:19:31.959Z,17.43
2017-10-11T16:22:01.456Z,21.87
2017-10-11T16:24:30.794Z,41.35
2017-10-11T16:27:01.167Z,27.58
2017-10-11T16:29:30.533Z,74.43
2017-10-11T16:32:00.807Z,44.30
2017-10-11T16:34:30.916Z,26.00
2017-10-11T16:37:00.599Z,16.75
2017-10-11T16:39:31.283Z,11.17
2017-10-11T16:42:02.528Z,34.05
2017-10-11T16:44:32.197Z,19.50
2017-10-11T16:47:01.563Z,9.68
2017-10-11T16:49:31.576Z,13.40
2017-10-11T16:52:01.911Z,5.87
2017-10-11T16:54:31.650Z,10.67
2017-10-11T16:57:01.227Z,12.02
2017-10-11T16:59:32.726Z,18.25
2017-10-11T17:02:02.128Z,4.40
2017-10-11T17:04:31.775Z,9.88
2017-10-11T17:07:01.293Z,4.75
2017-10-11T17:09:30.680Z,4.70
2017-10-11T17:12:01.195Z,5.27
2017-10-11T17:14:32.132Z,5.50
2017-10-11T17:17:01.654Z,3.80
2017-10-11T17:19:32.193Z,2.90
2017-10-11T17:22:02.453Z,4.68
2017-10-11T17:24:31.852Z,7.60
2017-10-11T17:27:01.579Z,5.37
2017-10-11T17:29:32.066Z,4.37
2017-10-11T17:32:01.667Z,8.85
2017-10-11T17:34:31.666Z,6.70
2017-10-11T17:37:02.258Z,5.40
2017-10-11T17:39:34.030Z,4.20
2017-10-11T17:42:05.766Z,8.93
2017-10-11T17:44:36.346Z,8.40
2017-10-11T17:47:06.671Z,11.33
2017-10-11T17:49:36.899Z,14.50
2017-10-11T17:52:06.972Z,12.30
2017-10-11T17:54:38.637Z,9.82
2017-10-11T17:57:09.019Z,13.73
2017-10-11T17:59:39.366Z,19.75
2017-10-11T18:02:09.069Z,11.57
2017-10-11T18:04:38.513Z,15.20
2017-10-11T18:07:07.811Z,10.32
2017-10-11T18:09:37.587Z,14.60
2017-10-11T18:12:08.001Z,16.98
2017-10-11T18:14:37.536Z,11.60
2017-10-11T18:17:07.857Z,12.18
2017-10-11T18:19:37.176Z,8.77
2017-10-11T18:22:06.738Z,8.15
2017-10-11T18:24:36.975Z,10.63
2017-10-11T18:27:07.476Z,18.83
2017-10-11T18:29:36.806Z,13.00
2017-10-11T18:32:07.151Z,8.45
2017-10-11T18:34:36.500Z,6.95
2017-10-11T18:37:06.038Z,9.10
2017-10-11T18:39:36.192Z,6.40
2017-10-11T18:42:06.172Z,5.90
2017-10-11T18:44:36.464Z,8.60
2017-10-11T18:47:05.904Z,52.47
2017-10-11T18:49:35.571Z,10.98
2017-10-11T18:52:06.454Z,11.25
2017-10-11T18:54:36.138Z,5.75
2017-10-11T18:57:06.275Z,12.45
2017-10-11T18:59:36.561Z,5.55
2017-10-11T19:02:06.404Z,4.53
2017-10-11T19:04:36.865Z,9.07
2017-10-11T19:07:07.083Z,8.65
2017-10-11T19:09:36.572Z,5.50
2017-10-11T19:12:06.516Z,4.53
2017-10-11T19:14:36.239Z,6.97
2017-10-11T19:17:06.913Z,20.12
2017-10-11T19:19:37.276Z,14.03
2017-10-11T19:22:07.284Z,7.20
2017-10-11T19:24:37.721Z,5.95
2017-10-11T19:27:07.398Z,6.65
2017-10-11T19:29:37.211Z,18.73
2017-10-11T19:32:07.232Z,6.32
2017-10-11T19:34:36.776Z,10.30
2017-10-11T19:37:07.414Z,7.12
2017-10-11T19:39:37.020Z,5.55
2017-10-11T19:42:06.724Z,8.82
2017-10-11T19:44:37.396Z,5.93
2017-10-11T19:47:07.791Z,7.10
2017-10-11T19:49:39.050Z,7.78
2017-10-11T19:52:10.493Z,6.55
2017-10-11T19:54:40.414Z,8.05
2017-10-11T19:57:10.279Z,6.90
2017-10-11T19:59:41.304Z,9.93
2017-10-11T20:02:12.084Z,18.25
2017-10-11T20:04:42.434Z,6.75
2017-10-11T20:07:13.796Z,8.15
2017-10-11T20:09:44.509Z,32.28
2017-10-11T20:12:15.022Z,7.82
2017-10-11T20:14:45.945Z,5.32
2017-10-11T20:17:16.575Z,11.93
2017-10-11T20:19:46.492Z,47.33
2017-10-11T20:22:16.607Z,7.82
2017-10-11T20:24:45.963Z,7.50
2017-10-11T20:27:15.419Z,7.55
2017-10-11T20:29:44.823Z,4.35
2017-10-11T20:32:14.319Z,101.30
2017-10-11T20:34:44.824Z,30.12
2017-10-11T20:37:14.987Z,8.43
2017-10-11T20:39:44.855Z,4.95
2017-10-11T20:42:14.484Z,5.75
2017-10-11T20:44:45.146Z,7.60
2017-10-11T20:47:15.479Z,8.07
2017-10-11T20:49:45.182Z,3.55
2017-10-11T20:52:17.336Z,2.87
2017-10-11T20:54:51.709Z,4.83
2017-10-11T20:57:21.154Z,5.30
2017-10-11T20:59:51.385Z,3.80
2017-10-11T21:02:21.474Z,4.07
2017-10-11T21:04:51.163Z,3.70
2017-10-11T21:07:21.656Z,6.50
2017-10-11T21:09:51.318Z,4.67
2017-10-11T21:12:20.710Z,4.32
2017-10-11T21:14:50.944Z,11.07
2017-10-11T21:17:22.326Z,6.10
2017-10-11T21:19:52.433Z,3.45
2017-10-11T21:22:22.709Z,4.83
2017-10-11T21:24:53.763Z,4.07
2017-10-11T21:27:23.045Z,7.75
2017-10-11T21:29:53.243Z,2.87
2017-10-11T21:32:22.890Z,4.70
2017-10-11T21:34:52.263Z,4.47
2017-10-11T21:37:21.605Z,120.93
2017-10-11T21:39:51.719Z,142.00
2017-10-11T21:42:21.180Z,72.15
2017-10-11T21:44:50.602Z,73.05
2017-10-11T21:47:19.966Z,66.65
2017-10-11T21:49:50.361Z,83.20
2017-10-11T21:52:19.777Z,47.65
2017-10-11T21:54:50.071Z,31.27
2017-10-11T21:57:19.616Z,79.95
2017-10-11T21:59:49.769Z,147.45
2017-10-11T22:02:21.434Z,104.22
2017-10-11T22:04:50.802Z,155.83
2017-10-11T22:07:20.367Z,111.70
2017-10-11T22:09:49.809Z,84.28
2017-10-11T22:12:19.081Z,54.63
2017-10-11T22:14:49.269Z,48.22
2017-10-11T22:17:19.029Z,56.75
2017-10-11T22:19:48.622Z,48.80
2017-10-11T22:22:18.618Z,35.15
2017-10-11T22:24:48.028Z,20.92
2017-10-11T22:27:18.073Z,22.87
2017-10-11T22:29:47.515Z,21.83
2017-10-11T22:32:17.107Z,16.42
2017-10-11T22:34:46.415Z,18.97
2017-10-11T22:37:15.866Z,43.33
2017-10-11T22:39:45.980Z,47.85
2017-10-11T22:42:16.044Z,39.25
2017-10-11T22:44:45.332Z,44.50
2017-10-11T22:47:14.856Z,27.95
2017-10-11T22:49:45.138Z,12.52
2017-10-11T22:52:15.609Z,12.23
2017-10-11T22:54:44.833Z,5.97
2017-10-11T22:57:14.385Z,17.52
2017-10-11T22:59:43.931Z,8.05
2017-10-11T23:02:13.701Z,5.30
2017-10-11T23:04:42.989Z,6.18
2017-10-11T23:07:12.215Z,4.83
2017-10-11T23:09:42.631Z,8.30
2017-10-11T23:12:11.894Z,4.53
2017-10-11T23:14:42.065Z,82.00
2017-10-11T23:17:12.465Z,48.42
2017-10-11T23:19:42.111Z,28.90
2017-10-11T23:22:12.863Z,29.57
2017-10-11T23:24:42.470Z,24.17
2017-10-11T23:27:12.525Z,10.18
2017-10-11T23:29:42.326Z,7.90
2017-10-11T23:32:11.693Z,4.00
2017-10-11T23:34:41.471Z,6.43
2017-10-11T23:37:10.921Z,4.45
2017-10-11T23:39:40.976Z,6.37
2017-10-11T23:42:10.700Z,4.70
2017-10-11T23:44:39.986Z,4.85
2017-10-11T23:47:10.961Z,4.97
2017-10-11T23:49:40.485Z,7.90
2017-10-11T23:52:10.569Z,3.53
2017-10-11T23:54:40.651Z,3.50
2017-10-11T23:57:10.493Z,6.85
2017-10-11T23:59:40.063Z,2.87
